Bookmark and Share
Track history (hours):
 

Megah Delapan

Last reported at 2014-Apr-17 16:27 UTC. Time now 2014-Apr-23 09:39 UTC.
Position N 34°32' E 138°34'.

Length 120 m; draft 8.1 m.

Type: Cargo ship. MMSI: 477639100.

NotesDate/timePositionNaut miles runAvg speedWind from/ knotsBaromVisibWave heightAir tempDewpointWater temp
2014-Apr-17 16:27N 34°32' E 138°34'3210.3
2014-Apr-17 13:18N 34°42' E 139°11'1110.6
2014-Apr-17 12:18N 34°50' E 139°20'811.2
2014-Apr-17 11:33N 34°55' E 139°28'1111.2
2014-Apr-17 10:33N 35°01' E 139°39'1110.9
2014-Apr-17 09:34N 35°11' E 139°46'1110.9
2014-Apr-17 08:33N 35°21' E 139°42'6 5.4
2014-Apr-17 07:31N 35°27' E 139°40'0 0.0
2014-Apr-17 06:31N 35°27' E 139°40'0 0.0
2014-Apr-17 05:31N 35°27' E 139°40'0 0.0
2014-Apr-17 04:31N 35°27' E 139°40'0 0.0
2014-Apr-17 03:31N 35°27' E 139°40'0 0.0
2014-Apr-17 02:31N 35°27' E 139°40'0 0.0
2014-Apr-17 01:31N 35°27' E 139°40'0 0.0
2014-Apr-17 00:31N 35°27' E 139°40'0 0.0
2014-Apr-16 23:31N 35°27' E 139°40'0 0.0
2014-Apr-16 22:28N 35°27' E 139°40'0 0.0
2014-Apr-16 21:31N 35°27' E 139°40'0 0.0
2014-Apr-16 20:31N 35°27' E 139°40'0 0.0
2014-Apr-16 19:25N 35°27' E 139°40'0 0.0
2014-Apr-16 18:28N 35°27' E 139°40'0 0.0
2014-Apr-16 17:31N 35°27' E 139°40'0 0.0
2014-Apr-16 16:28N 35°27' E 139°40'0 0.0
2014-Apr-16 15:25N 35°27' E 139°40'0 0.0
2014-Apr-16 14:31N 35°27' E 139°40'0 0.0
2014-Apr-16 13:28N 35°27' E 139°40'0 0.0
2014-Apr-16 12:28N 35°27' E 139°40'0 0.0
2014-Apr-16 11:22N 35°27' E 139°40'0 0.0
2014-Apr-16 10:31N 35°27' E 139°40'0 0.0
2014-Apr-16 09:28N 35°27' E 139°40'0 0.0
2014-Apr-16 08:31N 35°27' E 139°40'0 0.0
2014-Apr-16 07:31N 35°27' E 139°40'0 0.0
2014-Apr-16 06:31N 35°27' E 139°40'0 0.0
2014-Apr-16 05:31N 35°27' E 139°40'0 0.3
2014-Apr-16 04:32N 35°27' E 139°41'2 1.6
2014-Apr-16 03:31N 35°26' E 139°42'0 0.1
2014-Apr-16 02:31N 35°26' E 139°42'0 0.1
2014-Apr-16 01:25N 35°26' E 139°42'0 0.0
2014-Apr-16 00:22N 35°26' E 139°42'0 0.0
2014-Apr-15 23:31N 35°26' E 139°42'3 2.8
2014-Apr-15 22:33N 35°23' E 139°43'1211.6
2014-Apr-15 21:33N 35°12' E 139°47'1111.4
2014-Apr-15 20:33N 35°01' E 139°42'1211.5
2014-Apr-15 19:33N 34°55' E 139°30'4911.1
2014-Apr-15 15:06N 34°32' E 138°37'  
2014-Apr-11 10:07N 34°09' E 134°59'812.9
2014-Apr-11 09:32N 34°17' E 134°58'1212.0
2014-Apr-11 08:33N 34°26' E 135°07'1312.9
2014-Apr-11 07:33N 34°37' E 135°16'5 5.5
2014-Apr-11 06:33N 34°42' E 135°15'0 0.0
2014-Apr-11 05:33N 34°42' E 135°15'0 0.0
2014-Apr-11 04:33N 34°42' E 135°15'0 0.0
2014-Apr-11 03:33N 34°42' E 135°15'0 0.0
2014-Apr-11 02:27N 34°42' E 135°15'0 0.0
2014-Apr-11 01:33N 34°42' E 135°15'0 0.0
2014-Apr-11 00:33N 34°42' E 135°15'0 0.0
2014-Apr-10 23:27N 34°42' E 135°15'0 0.0
2014-Apr-10 22:33N 34°42' E 135°15'0 0.0
2014-Apr-10 21:33N 34°42' E 135°15'0 0.0
2014-Apr-10 20:27N 34°42' E 135°15'0 0.0
2014-Apr-10 19:33N 34°42' E 135°15'0 0.0
2014-Apr-10 18:33N 34°42' E 135°15'0 0.0
2014-Apr-10 17:33N 34°42' E 135°15'0 0.0
2014-Apr-10 16:27N 34°42' E 135°15'0 0.0
2014-Apr-10 15:33N 34°42' E 135°15'0 0.0
2014-Apr-10 14:33N 34°42' E 135°15'0 0.0
2014-Apr-10 13:27N 34°42' E 135°15'0 0.0
2014-Apr-10 12:33N 34°42' E 135°15'0 0.0
2014-Apr-10 11:33N 34°42' E 135°15'0 0.0
2014-Apr-10 10:15N 34°42' E 135°15'0 0.0
2014-Apr-10 09:33N 34°42' E 135°15'0 0.0
2014-Apr-10 08:27N 34°42' E 135°15'0 0.0
2014-Apr-10 07:33N 34°42' E 135°15'0 0.0
2014-Apr-10 06:33N 34°42' E 135°15'0 0.0
2014-Apr-10 05:33N 34°42' E 135°15'1 1.3
2014-Apr-10 04:33N 34°41' E 135°15'4 3.3
2014-Apr-10 03:23N 34°37' E 135°14'0 0.1
2014-Apr-10 02:23N 34°37' E 135°13'0 0.0
2014-Apr-10 01:29N 34°37' E 135°13'0 0.0
2014-Apr-10 00:29N 34°37' E 135°13'0 0.0
2014-Apr-09 23:23N 34°37' E 135°13'0 0.1
2014-Apr-09 22:29N 34°37' E 135°13'3 3.0
2014-Apr-09 21:33N 34°34' E 135°14'1313.0
2014-Apr-09 20:31N 34°24' E 135°03'1313.9
2014-Apr-09 19:33N 34°11' E 134°58'  

Dump ship's entire track history

sailing weather and tide predictions

Megah Delapan — VRGA4 — position and weather